Terminal Aerodrome Forecast
Issued by NWS

Home | Current Version | Previous Version | Text Only | Print | Product List | Glossary On
Versions: 1 2 3 4 5 6 7 8 9 10 11 12 13 14
527
FTUS42 KTAE 010521
TAFDHN
TAF
KDHN 010521Z 0106/0206 24003KT P6SM SCT250
     FM011500 20007KT P6SM SCT040
     FM020200 23005KT P6SM SKC=

USA.gov is the U.S. government's official web portal to all federal, state and local government web resources and services.